Gulfport Biloxi International Airport
KGPT : now visible

Airfield :











YOU CAN JOIN US ON...

 
LOGIN :

Register | Disclaimer

   EN    FR    IT 

 









Legend :    VFR   Marginal VFR   IFR   Intensive IFR   Very Intensive IFR
Visi :
Ceiling :
>= 8 km
>= 3000ft
5 to 8 km
1000 to 3000 ft
1500m to 5 km
500 to 1000 ft
800 to 1500m
200 to 500 ft
< 800m
< 200 ft
Symbols :   Thunderstorms  Fog  Heavy snow  Heavy precipitations  Wind > 20 kt







- Airport Elevation : 28 ft
- IATA code : GPT


KGPT - Gulfport Biloxi International

CURRENT METAR :
  • 190953Z AUTO 00000KT 10SM OVC070 26/24 A3000 RMK AO2 LTG DSNT SE SLP159 T02560239

EXPIRED METARs :
  • 190853Z AUTO 00000KT 10SM BKN060 25/24 A2999 RMK AO2 SLP154 T02500239 51001
  • 190753Z AUTO 00000KT 10SM BKN060 25/24 A2999 RMK AO2 SLP154 T02500239

TAF KGPT
Valid from the 19 at 06:00 until the 20 at 06:00 UTC


190520Z 1906/2006 26003KT P6SM FEW090
FM191800 20007KT P6SM VCTS SCT025CB OVC040
FM200100 27005KT P6SM SCT050 OVC100
No reported NOTAMs for that airfield.



MET'MAP, your aeronautical weather chart ! - Copyright ORBIFLY December 2007 - Disclaimer

ORBIFLY MET'MAP TEAM :

Programming & Development : Alexandra Zaïnal
Concept & Development : Baudouin d'Aumeries
Co-Development & Prog : Marc-Olivier Méhu
Technical & hardware support : Manuel Goepfert

Contact : metmap@orbifly.com




SOURCES & CREDITS :

   NOAA       Earth
Advisory